sensor_id;sensor_type;location;lat;lon;timestamp;P1;durP1;ratioP1;P2;durP2;ratioP2
52386;SDS011;38317;53.084;6.960;2023-07-31T00:00:34;3.20;;;1.38;;
52386;SDS011;38317;53.084;6.960;2023-07-31T00:02:59;3.28;;;1.40;;
52386;SDS011;38317;53.084;6.960;2023-07-31T00:05:25;2.70;;;1.10;;
52386;SDS011;38317;53.084;6.960;2023-07-31T00:07:51;3.15;;;1.40;;
52386;SDS011;38317;53.084;6.960;2023-07-31T00:10:17;2.53;;;1.20;;
52386;SDS011;38317;53.084;6.960;2023-07-31T00:12:43;3.00;;;1.42;;
52386;SDS011;38317;53.084;6.960;2023-07-31T00:15:10;4.18;;;1.38;;
52386;SDS011;38317;53.084;6.960;2023-07-31T00:17:36;4.65;;;1.45;;
52386;SDS011;38317;53.084;6.960;2023-07-31T00:20:02;3.03;;;1.30;;
52386;SDS011;38317;53.084;6.960;2023-07-31T00:22:28;3.08;;;1.42;;
52386;SDS011;38317;53.084;6.960;2023-07-31T00:24:55;4.70;;;1.63;;
52386;SDS011;38317;53.084;6.960;2023-07-31T00:27:21;4.78;;;1.80;;
52386;SDS011;38317;53.084;6.960;2023-07-31T00:29:47;3.90;;;1.20;;
52386;SDS011;38317;53.084;6.960;2023-07-31T00:32:13;4.15;;;1.50;;
52386;SDS011;38317;53.084;6.960;2023-07-31T00:34:38;3.33;;;1.30;;
52386;SDS011;38317;53.084;6.960;2023-07-31T00:37:04;2.20;;;1.27;;
52386;SDS011;38317;53.084;6.960;2023-07-31T00:39:30;2.65;;;1.23;;
52386;SDS011;38317;53.084;6.960;2023-07-31T00:41:56;5.22;;;1.52;;
52386;SDS011;38317;53.084;6.960;2023-07-31T00:44:22;3.33;;;1.75;;
52386;SDS011;38317;53.084;6.960;2023-07-31T00:46:48;3.35;;;1.33;;
52386;SDS011;38317;53.084;6.960;2023-07-31T00:49:14;2.72;;;1.20;;
52386;SDS011;38317;53.084;6.960;2023-07-31T00:51:41;3.20;;;1.30;;
52386;SDS011;38317;53.084;6.960;2023-07-31T00:54:06;3.35;;;1.50;;
52386;SDS011;38317;53.084;6.960;2023-07-31T00:56:32;4.00;;;1.95;;
52386;SDS011;38317;53.084;6.960;2023-07-31T00:58:59;5.85;;;1.80;;
52386;SDS011;38317;53.084;6.960;2023-07-31T01:01:24;2.72;;;1.35;;
52386;SDS011;38317;53.084;6.960;2023-07-31T01:03:50;4.65;;;1.65;;
52386;SDS011;38317;53.084;6.960;2023-07-31T01:06:27;3.08;;;1.38;;
52386;SDS011;38317;53.084;6.960;2023-07-31T01:09:03;3.35;;;1.50;;
52386;SDS011;38317;53.084;6.960;2023-07-31T01:14:03;2.75;;;1.50;;
52386;SDS011;38317;53.084;6.960;2023-07-31T01:16:29;2.95;;;1.60;;
52386;SDS011;38317;53.084;6.960;2023-07-31T01:18:54;3.33;;;1.30;;
52386;SDS011;38317;53.084;6.960;2023-07-31T01:21:33;2.95;;;1.33;;
52386;SDS011;38317;53.084;6.960;2023-07-31T01:24:21;3.15;;;1.25;;
52386;SDS011;38317;53.084;6.960;2023-07-31T01:26:55;3.58;;;1.63;;
52386;SDS011;38317;53.084;6.960;2023-07-31T01:29:37;3.30;;;1.42;;
52386;SDS011;38317;53.084;6.960;2023-07-31T01:32:12;2.83;;;1.30;;
52386;SDS011;38317;53.084;6.960;2023-07-31T01:34:39;3.33;;;1.40;;
52386;SDS011;38317;53.084;6.960;2023-07-31T01:37:06;2.17;;;1.10;;
52386;SDS011;38317;53.084;6.960;2023-07-31T01:39:32;2.13;;;1.20;;
52386;SDS011;38317;53.084;6.960;2023-07-31T01:41:58;2.78;;;1.20;;
52386;SDS011;38317;53.084;6.960;2023-07-31T01:44:23;3.40;;;1.20;;
52386;SDS011;38317;53.084;6.960;2023-07-31T01:46:49;2.13;;;1.10;;
52386;SDS011;38317;53.084;6.960;2023-07-31T01:49:15;2.25;;;0.93;;
52386;SDS011;38317;53.084;6.960;2023-07-31T01:51:40;3.05;;;1.02;;
52386;SDS011;38317;53.084;6.960;2023-07-31T01:54:06;2.33;;;1.20;;
52386;SDS011;38317;53.084;6.960;2023-07-31T01:56:32;2.45;;;1.13;;
52386;SDS011;38317;53.084;6.960;2023-07-31T01:58:58;1.95;;;0.85;;
52386;SDS011;38317;53.084;6.960;2023-07-31T02:01:23;3.17;;;1.10;;
52386;SDS011;38317;53.084;6.960;2023-07-31T02:03:49;1.33;;;0.75;;
52386;SDS011;38317;53.084;6.960;2023-07-31T02:06:15;2.42;;;0.95;;
52386;SDS011;38317;53.084;6.960;2023-07-31T02:08:40;1.98;;;1.02;;
52386;SDS011;38317;53.084;6.960;2023-07-31T02:11:06;1.52;;;0.82;;
52386;SDS011;38317;53.084;6.960;2023-07-31T02:13:32;2.70;;;0.85;;
52386;SDS011;38317;53.084;6.960;2023-07-31T02:15:57;1.80;;;0.82;;
52386;SDS011;38317;53.084;6.960;2023-07-31T02:18:23;1.33;;;0.80;;
52386;SDS011;38317;53.084;6.960;2023-07-31T02:20:52;1.48;;;0.65;;
52386;SDS011;38317;53.084;6.960;2023-07-31T02:23:18;1.42;;;0.80;;
52386;SDS011;38317;53.084;6.960;2023-07-31T02:25:44;1.67;;;0.70;;
52386;SDS011;38317;53.084;6.960;2023-07-31T02:28:11;2.88;;;0.68;;
52386;SDS011;38317;53.084;6.960;2023-07-31T02:30:37;0.63;;;0.40;;
52386;SDS011;38317;53.084;6.960;2023-07-31T02:33:03;1.77;;;0.50;;
52386;SDS011;38317;53.084;6.960;2023-07-31T02:35:29;2.30;;;0.60;;
52386;SDS011;38317;53.084;6.960;2023-07-31T02:37:54;2.05;;;0.47;;
52386;SDS011;38317;53.084;6.960;2023-07-31T02:40:20;0.43;;;0.30;;
52386;SDS011;38317;53.084;6.960;2023-07-31T02:42:46;0.70;;;0.40;;
52386;SDS011;38317;53.084;6.960;2023-07-31T02:45:11;2.47;;;0.43;;
52386;SDS011;38317;53.084;6.960;2023-07-31T02:47:38;0.38;;;0.25;;
52386;SDS011;38317;53.084;6.960;2023-07-31T02:50:03;1.08;;;0.30;;
52386;SDS011;38317;53.084;6.960;2023-07-31T02:52:30;1.65;;;0.65;;
52386;SDS011;38317;53.084;6.960;2023-07-31T02:54:55;0.57;;;0.28;;
52386;SDS011;38317;53.084;6.960;2023-07-31T02:57:22;0.50;;;0.30;;
52386;SDS011;38317;53.084;6.960;2023-07-31T02:59:48;1.10;;;0.20;;
52386;SDS011;38317;53.084;6.960;2023-07-31T03:02:14;0.52;;;0.40;;
52386;SDS011;38317;53.084;6.960;2023-07-31T03:04:40;0.60;;;0.32;;
52386;SDS011;38317;53.084;6.960;2023-07-31T03:07:05;0.68;;;0.30;;
52386;SDS011;38317;53.084;6.960;2023-07-31T03:09:31;0.40;;;0.25;;
52386;SDS011;38317;53.084;6.960;2023-07-31T03:11:57;0.65;;;0.25;;
52386;SDS011;38317;53.084;6.960;2023-07-31T03:14:22;1.08;;;0.45;;
52386;SDS011;38317;53.084;6.960;2023-07-31T03:16:48;0.90;;;0.20;;
52386;SDS011;38317;53.084;6.960;2023-07-31T03:19:14;0.60;;;0.30;;
52386;SDS011;38317;53.084;6.960;2023-07-31T03:21:40;2.25;;;0.43;;
52386;SDS011;38317;53.084;6.960;2023-07-31T03:24:06;0.90;;;0.22;;
52386;SDS011;38317;53.084;6.960;2023-07-31T03:26:32;0.75;;;0.40;;
52386;SDS011;38317;53.084;6.960;2023-07-31T03:28:58;1.27;;;0.30;;
52386;SDS011;38317;53.084;6.960;2023-07-31T03:31:23;0.90;;;0.30;;
52386;SDS011;38317;53.084;6.960;2023-07-31T03:33:49;1.02;;;0.30;;
52386;SDS011;38317;53.084;6.960;2023-07-31T03:36:15;0.93;;;0.40;;
52386;SDS011;38317;53.084;6.960;2023-07-31T03:38:40;0.82;;;0.40;;
52386;SDS011;38317;53.084;6.960;2023-07-31T03:41:06;0.30;;;0.10;;
52386;SDS011;38317;53.084;6.960;2023-07-31T03:43:32;0.43;;;0.30;;
52386;SDS011;38317;53.084;6.960;2023-07-31T03:46:01;0.40;;;0.28;;
52386;SDS011;38317;53.084;6.960;2023-07-31T03:48:27;0.47;;;0.30;;
52386;SDS011;38317;53.084;6.960;2023-07-31T03:50:54;2.17;;;0.20;;
52386;SDS011;38317;53.084;6.960;2023-07-31T03:53:20;0.50;;;0.28;;
52386;SDS011;38317;53.084;6.960;2023-07-31T03:55:45;0.70;;;0.30;;
52386;SDS011;38317;53.084;6.960;2023-07-31T03:58:11;0.70;;;0.30;;
52386;SDS011;38317;53.084;6.960;2023-07-31T04:00:37;0.50;;;0.22;;
52386;SDS011;38317;53.084;6.960;2023-07-31T04:03:03;0.70;;;0.30;;
52386;SDS011;38317;53.084;6.960;2023-07-31T04:05:32;1.13;;;0.40;;
52386;SDS011;38317;53.084;6.960;2023-07-31T04:07:58;0.30;;;0.30;;
52386;SDS011;38317;53.084;6.960;2023-07-31T04:10:24;0.70;;;0.40;;
52386;SDS011;38317;53.084;6.960;2023-07-31T04:12:49;0.50;;;0.30;;
52386;SDS011;38317;53.084;6.960;2023-07-31T04:15:15;0.80;;;0.47;;
52386;SDS011;38317;53.084;6.960;2023-07-31T04:17:41;0.50;;;0.35;;
52386;SDS011;38317;53.084;6.960;2023-07-31T04:20:07;0.80;;;0.35;;
52386;SDS011;38317;53.084;6.960;2023-07-31T04:22:33;0.73;;;0.43;;
52386;SDS011;38317;53.084;6.960;2023-07-31T04:24:59;1.58;;;0.40;;
52386;SDS011;38317;53.084;6.960;2023-07-31T04:27:25;0.60;;;0.35;;
52386;SDS011;38317;53.084;6.960;2023-07-31T04:29:50;0.73;;;0.50;;
52386;SDS011;38317;53.084;6.960;2023-07-31T04:32:16;1.77;;;0.50;;
52386;SDS011;38317;53.084;6.960;2023-07-31T04:34:42;0.60;;;0.43;;
52386;SDS011;38317;53.084;6.960;2023-07-31T04:37:08;3.22;;;0.52;;
52386;SDS011;38317;53.084;6.960;2023-07-31T04:39:34;0.68;;;0.35;;
52386;SDS011;38317;53.084;6.960;2023-07-31T04:42:00;0.73;;;0.40;;
52386;SDS011;38317;53.084;6.960;2023-07-31T04:44:25;0.55;;;0.43;;
52386;SDS011;38317;53.084;6.960;2023-07-31T04:46:51;2.30;;;0.70;;
52386;SDS011;38317;53.084;6.960;2023-07-31T04:49:17;0.95;;;0.60;;
52386;SDS011;38317;53.084;6.960;2023-07-31T04:51:43;0.90;;;0.40;;
52386;SDS011;38317;53.084;6.960;2023-07-31T04:54:09;0.70;;;0.40;;
52386;SDS011;38317;53.084;6.960;2023-07-31T04:56:35;1.02;;;0.50;;
52386;SDS011;38317;53.084;6.960;2023-07-31T04:59:00;1.35;;;0.50;;
52386;SDS011;38317;53.084;6.960;2023-07-31T05:01:26;1.95;;;0.60;;
52386;SDS011;38317;53.084;6.960;2023-07-31T05:03:52;0.70;;;0.40;;
52386;SDS011;38317;53.084;6.960;2023-07-31T05:06:17;0.93;;;0.60;;
52386;SDS011;38317;53.084;6.960;2023-07-31T05:08:43;0.90;;;0.50;;
52386;SDS011;38317;53.084;6.960;2023-07-31T05:11:09;0.43;;;0.40;;
52386;SDS011;38317;53.084;6.960;2023-07-31T05:13:34;1.33;;;0.43;;
52386;SDS011;38317;53.084;6.960;2023-07-31T05:16:00;1.58;;;0.32;;
52386;SDS011;38317;53.084;6.960;2023-07-31T05:18:26;1.23;;;0.52;;
52386;SDS011;38317;53.084;6.960;2023-07-31T05:20:51;0.75;;;0.40;;
52386;SDS011;38317;53.084;6.960;2023-07-31T05:23:17;1.80;;;0.40;;
52386;SDS011;38317;53.084;6.960;2023-07-31T05:25:43;1.38;;;0.45;;
52386;SDS011;38317;53.084;6.960;2023-07-31T05:28:08;0.63;;;0.40;;
52386;SDS011;38317;53.084;6.960;2023-07-31T05:30:34;0.52;;;0.35;;
52386;SDS011;38317;53.084;6.960;2023-07-31T05:33:00;1.95;;;0.40;;
52386;SDS011;38317;53.084;6.960;2023-07-31T05:35:25;0.63;;;0.20;;
52386;SDS011;38317;53.084;6.960;2023-07-31T05:37:51;0.75;;;0.28;;
52386;SDS011;38317;53.084;6.960;2023-07-31T05:40:17;0.38;;;0.20;;
52386;SDS011;38317;53.084;6.960;2023-07-31T05:42:42;0.98;;;0.20;;
52386;SDS011;38317;53.084;6.960;2023-07-31T05:45:08;1.48;;;0.32;;
52386;SDS011;38317;53.084;6.960;2023-07-31T05:47:34;0.57;;;0.40;;
52386;SDS011;38317;53.084;6.960;2023-07-31T05:50:00;1.08;;;0.30;;
52386;SDS011;38317;53.084;6.960;2023-07-31T05:52:26;0.65;;;0.30;;
52386;SDS011;38317;53.084;6.960;2023-07-31T05:54:54;3.58;;;0.60;;
52386;SDS011;38317;53.084;6.960;2023-07-31T05:57:20;1.80;;;0.60;;
52386;SDS011;38317;53.084;6.960;2023-07-31T05:59:46;1.95;;;0.77;;
52386;SDS011;38317;53.084;6.960;2023-07-31T06:02:12;2.85;;;0.70;;
52386;SDS011;38317;53.084;6.960;2023-07-31T06:04:40;1.70;;;0.50;;
52386;SDS011;38317;53.084;6.960;2023-07-31T06:07:06;1.13;;;0.50;;
52386;SDS011;38317;53.084;6.960;2023-07-31T06:09:31;2.78;;;0.98;;
52386;SDS011;38317;53.084;6.960;2023-07-31T06:11:57;1.27;;;0.40;;
52386;SDS011;38317;53.084;6.960;2023-07-31T06:14:23;1.95;;;0.65;;
52386;SDS011;38317;53.084;6.960;2023-07-31T06:16:49;2.40;;;0.82;;
52386;SDS011;38317;53.084;6.960;2023-07-31T06:19:15;3.47;;;1.05;;
52386;SDS011;38317;53.084;6.960;2023-07-31T06:21:40;3.22;;;1.00;;
52386;SDS011;38317;53.084;6.960;2023-07-31T06:24:09;3.55;;;1.10;;
52386;SDS011;38317;53.084;6.960;2023-07-31T06:26:35;2.67;;;1.35;;
52386;SDS011;38317;53.084;6.960;2023-07-31T06:29:00;5.28;;;1.63;;
52386;SDS011;38317;53.084;6.960;2023-07-31T06:31:26;8.32;;;2.20;;
52386;SDS011;38317;53.084;6.960;2023-07-31T06:33:52;6.00;;;2.00;;
52386;SDS011;38317;53.084;6.960;2023-07-31T06:36:18;8.73;;;2.88;;
52386;SDS011;38317;53.084;6.960;2023-07-31T06:38:44;11.88;;;3.97;;
52386;SDS011;38317;53.084;6.960;2023-07-31T06:41:09;10.05;;;3.25;;
52386;SDS011;38317;53.084;6.960;2023-07-31T06:43:35;11.55;;;3.25;;
52386;SDS011;38317;53.084;6.960;2023-07-31T06:46:08;12.05;;;3.63;;
52386;SDS011;38317;53.084;6.960;2023-07-31T06:48:35;12.45;;;4.10;;
52386;SDS011;38317;53.084;6.960;2023-07-31T06:51:02;15.15;;;3.90;;
52386;SDS011;38317;53.084;6.960;2023-07-31T06:53:28;14.40;;;3.83;;
52386;SDS011;38317;53.084;6.960;2023-07-31T06:55:54;12.80;;;4.30;;
52386;SDS011;38317;53.084;6.960;2023-07-31T06:58:20;15.68;;;3.70;;
52386;SDS011;38317;53.084;6.960;2023-07-31T07:00:46;11.70;;;4.30;;
52386;SDS011;38317;53.084;6.960;2023-07-31T07:03:14;13.32;;;3.90;;
52386;SDS011;38317;53.084;6.960;2023-07-31T07:05:40;13.02;;;3.33;;
52386;SDS011;38317;53.084;6.960;2023-07-31T07:08:05;13.02;;;4.13;;
52386;SDS011;38317;53.084;6.960;2023-07-31T07:10:31;12.13;;;3.17;;
52386;SDS011;38317;53.084;6.960;2023-07-31T07:12:57;9.13;;;2.88;;
52386;SDS011;38317;53.084;6.960;2023-07-31T07:15:23;11.90;;;3.15;;
52386;SDS011;38317;53.084;6.960;2023-07-31T07:17:48;11.05;;;3.05;;
52386;SDS011;38317;53.084;6.960;2023-07-31T07:20:14;10.23;;;3.20;;
52386;SDS011;38317;53.084;6.960;2023-07-31T07:22:40;10.52;;;4.32;;
52386;SDS011;38317;53.084;6.960;2023-07-31T07:25:08;9.68;;;3.15;;
52386;SDS011;38317;53.084;6.960;2023-07-31T07:27:34;14.00;;;4.45;;
52386;SDS011;38317;53.084;6.960;2023-07-31T07:30:00;9.55;;;3.08;;
52386;SDS011;38317;53.084;6.960;2023-07-31T07:32:26;11.65;;;3.83;;
52386;SDS011;38317;53.084;6.960;2023-07-31T07:34:51;14.23;;;4.15;;
52386;SDS011;38317;53.084;6.960;2023-07-31T07:37:17;12.30;;;3.72;;
52386;SDS011;38317;53.084;6.960;2023-07-31T07:39:43;10.32;;;3.47;;
52386;SDS011;38317;53.084;6.960;2023-07-31T07:42:09;13.63;;;3.80;;
52386;SDS011;38317;53.084;6.960;2023-07-31T07:44:34;11.93;;;4.20;;
52386;SDS011;38317;53.084;6.960;2023-07-31T07:47:00;9.48;;;3.72;;
52386;SDS011;38317;53.084;6.960;2023-07-31T07:49:26;7.40;;;3.28;;
52386;SDS011;38317;53.084;6.960;2023-07-31T07:51:52;9.23;;;3.22;;
52386;SDS011;38317;53.084;6.960;2023-07-31T07:54:18;11.05;;;3.78;;
52386;SDS011;38317;53.084;6.960;2023-07-31T07:56:46;12.10;;;3.33;;
52386;SDS011;38317;53.084;6.960;2023-07-31T07:59:11;9.18;;;3.35;;
52386;SDS011;38317;53.084;6.960;2023-07-31T08:01:37;7.22;;;2.47;;
52386;SDS011;38317;53.084;6.960;2023-07-31T08:04:03;12.82;;;3.88;;
52386;SDS011;38317;53.084;6.960;2023-07-31T08:06:29;8.82;;;3.13;;
52386;SDS011;38317;53.084;6.960;2023-07-31T08:08:55;7.90;;;2.60;;
52386;SDS011;38317;53.084;6.960;2023-07-31T08:11:21;5.93;;;2.63;;
52386;SDS011;38317;53.084;6.960;2023-07-31T08:13:48;8.45;;;2.65;;
52386;SDS011;38317;53.084;6.960;2023-07-31T08:16:14;6.32;;;2.50;;
52386;SDS011;38317;53.084;6.960;2023-07-31T08:18:41;8.23;;;2.60;;
52386;SDS011;38317;53.084;6.960;2023-07-31T08:21:08;6.90;;;2.50;;
52386;SDS011;38317;53.084;6.960;2023-07-31T08:23:34;7.18;;;2.10;;
52386;SDS011;38317;53.084;6.960;2023-07-31T08:25:59;6.25;;;2.40;;
52386;SDS011;38317;53.084;6.960;2023-07-31T08:28:25;6.30;;;2.25;;
52386;SDS011;38317;53.084;6.960;2023-07-31T08:30:51;5.50;;;2.28;;
52386;SDS011;38317;53.084;6.960;2023-07-31T08:33:16;4.68;;;1.92;;
52386;SDS011;38317;53.084;6.960;2023-07-31T08:35:42;4.90;;;2.13;;
52386;SDS011;38317;53.084;6.960;2023-07-31T08:38:08;5.78;;;1.98;;
52386;SDS011;38317;53.084;6.960;2023-07-31T08:40:37;6.53;;;1.83;;
52386;SDS011;38317;53.084;6.960;2023-07-31T08:43:03;4.32;;;1.45;;
52386;SDS011;38317;53.084;6.960;2023-07-31T08:45:29;5.03;;;1.75;;
52386;SDS011;38317;53.084;6.960;2023-07-31T08:47:56;4.25;;;1.77;;
52386;SDS011;38317;53.084;6.960;2023-07-31T08:50:24;5.25;;;1.83;;
52386;SDS011;38317;53.084;6.960;2023-07-31T08:52:51;4.55;;;1.50;;
52386;SDS011;38317;53.084;6.960;2023-07-31T08:55:17;4.18;;;1.75;;
52386;SDS011;38317;53.084;6.960;2023-07-31T08:57:50;4.30;;;1.50;;
52386;SDS011;38317;53.084;6.960;2023-07-31T09:00:20;4.10;;;1.40;;
52386;SDS011;38317;53.084;6.960;2023-07-31T09:02:50;2.42;;;1.05;;
52386;SDS011;38317;53.084;6.960;2023-07-31T09:05:34;2.90;;;1.20;;
52386;SDS011;38317;53.084;6.960;2023-07-31T09:08:02;3.38;;;1.25;;
52386;SDS011;38317;53.084;6.960;2023-07-31T09:10:29;3.03;;;1.45;;
52386;SDS011;38317;53.084;6.960;2023-07-31T09:12:55;2.58;;;1.00;;
52386;SDS011;38317;53.084;6.960;2023-07-31T09:15:21;2.88;;;1.20;;
52386;SDS011;38317;53.084;6.960;2023-07-31T09:17:48;3.25;;;1.20;;
52386;SDS011;38317;53.084;6.960;2023-07-31T09:20:25;2.67;;;1.13;;
52386;SDS011;38317;53.084;6.960;2023-07-31T09:22:51;2.03;;;1.08;;
52386;SDS011;38317;53.084;6.960;2023-07-31T09:25:22;5.63;;;1.65;;
52386;SDS011;38317;53.084;6.960;2023-07-31T09:30:24;4.25;;;1.52;;
52386;SDS011;38317;53.084;6.960;2023-07-31T09:32:51;3.15;;;1.30;;
52386;SDS011;38317;53.084;6.960;2023-07-31T09:35:29;2.80;;;1.10;;
52386;SDS011;38317;53.084;6.960;2023-07-31T09:38:00;2.10;;;1.20;;
52386;SDS011;38317;53.084;6.960;2023-07-31T09:40:32;1.42;;;0.80;;
52386;SDS011;38317;53.084;6.960;2023-07-31T09:43:06;1.42;;;0.60;;
52386;SDS011;38317;53.084;6.960;2023-07-31T09:45:34;1.60;;;0.73;;
52386;SDS011;38317;53.084;6.960;2023-07-31T09:48:07;4.30;;;0.80;;
52386;SDS011;38317;53.084;6.960;2023-07-31T09:50:42;3.97;;;1.20;;
52386;SDS011;38317;53.084;6.960;2023-07-31T09:53:10;2.25;;;0.70;;
52386;SDS011;38317;53.084;6.960;2023-07-31T09:55:36;2.33;;;0.90;;
52386;SDS011;38317;53.084;6.960;2023-07-31T09:58:03;1.88;;;0.63;;
52386;SDS011;38317;53.084;6.960;2023-07-31T10:00:34;1.60;;;0.65;;
52386;SDS011;38317;53.084;6.960;2023-07-31T10:03:09;0.80;;;0.50;;
52386;SDS011;38317;53.084;6.960;2023-07-31T10:05:37;1.63;;;0.85;;
52386;SDS011;38317;53.084;6.960;2023-07-31T10:08:15;1.02;;;0.47;;
52386;SDS011;38317;53.084;6.960;2023-07-31T10:10:46;0.95;;;0.50;;
52386;SDS011;38317;53.084;6.960;2023-07-31T10:13:12;1.38;;;0.38;;
52386;SDS011;38317;53.084;6.960;2023-07-31T10:15:39;1.90;;;0.47;;
52386;SDS011;38317;53.084;6.960;2023-07-31T10:18:06;1.42;;;0.50;;
52386;SDS011;38317;53.084;6.960;2023-07-31T10:20:36;1.00;;;0.40;;
52386;SDS011;38317;53.084;6.960;2023-07-31T10:23:02;1.08;;;0.45;;
52386;SDS011;38317;53.084;6.960;2023-07-31T10:25:29;0.70;;;0.43;;
52386;SDS011;38317;53.084;6.960;2023-07-31T10:27:57;0.50;;;0.28;;
52386;SDS011;38317;53.084;6.960;2023-07-31T10:30:27;0.40;;;0.20;;
52386;SDS011;38317;53.084;6.960;2023-07-31T10:32:55;1.00;;;0.50;;
52386;SDS011;38317;53.084;6.960;2023-07-31T10:35:21;0.55;;;0.20;;
52386;SDS011;38317;53.084;6.960;2023-07-31T10:37:47;1.45;;;0.40;;
52386;SDS011;38317;53.084;6.960;2023-07-31T10:40:17;0.50;;;0.30;;
52386;SDS011;38317;53.084;6.960;2023-07-31T10:42:48;0.95;;;0.35;;
52386;SDS011;38317;53.084;6.960;2023-07-31T10:47:58;0.65;;;0.47;;
52386;SDS011;38317;53.084;6.960;2023-07-31T10:53:03;1.63;;;0.40;;
52386;SDS011;38317;53.084;6.960;2023-07-31T10:55:33;1.73;;;0.60;;
52386;SDS011;38317;53.084;6.960;2023-07-31T11:00:31;1.65;;;0.40;;
52386;SDS011;38317;53.084;6.960;2023-07-31T11:03:07;1.15;;;0.30;;
52386;SDS011;38317;53.084;6.960;2023-07-31T11:10:48;0.35;;;0.30;;
52386;SDS011;38317;53.084;6.960;2023-07-31T11:13:26;0.47;;;0.30;;
52386;SDS011;38317;53.084;6.960;2023-07-31T11:15:53;1.13;;;0.30;;
52386;SDS011;38317;53.084;6.960;2023-07-31T11:18:19;1.20;;;0.30;;
52386;SDS011;38317;53.084;6.960;2023-07-31T11:20:44;0.40;;;0.20;;
52386;SDS011;38317;53.084;6.960;2023-07-31T11:23:10;0.25;;;0.25;;
52386;SDS011;38317;53.084;6.960;2023-07-31T11:25:37;0.43;;;0.30;;
52386;SDS011;38317;53.084;6.960;2023-07-31T11:28:11;0.50;;;0.20;;
52386;SDS011;38317;53.084;6.960;2023-07-31T11:30:38;0.77;;;0.40;;
52386;SDS011;38317;53.084;6.960;2023-07-31T11:33:06;0.57;;;0.28;;
52386;SDS011;38317;53.084;6.960;2023-07-31T11:35:36;0.40;;;0.30;;
52386;SDS011;38317;53.084;6.960;2023-07-31T11:38:07;0.93;;;0.30;;
52386;SDS011;38317;53.084;6.960;2023-07-31T11:40:42;0.75;;;0.40;;
52386;SDS011;38317;53.084;6.960;2023-07-31T11:43:08;0.98;;;0.43;;
52386;SDS011;38317;53.084;6.960;2023-07-31T11:45:36;0.55;;;0.30;;
52386;SDS011;38317;53.084;6.960;2023-07-31T11:48:04;0.63;;;0.13;;
52386;SDS011;38317;53.084;6.960;2023-07-31T11:50:30;2.22;;;0.20;;
52386;SDS011;38317;53.084;6.960;2023-07-31T11:52:59;0.20;;;0.10;;
52386;SDS011;38317;53.084;6.960;2023-07-31T11:55:28;0.30;;;0.20;;
52386;SDS011;38317;53.084;6.960;2023-07-31T11:57:56;0.82;;;0.10;;
52386;SDS011;38317;53.084;6.960;2023-07-31T12:00:23;1.00;;;0.45;;
52386;SDS011;38317;53.084;6.960;2023-07-31T12:02:51;0.00;;;0.00;;
52386;SDS011;38317;53.084;6.960;2023-07-31T12:05:17;0.00;;;0.00;;
52386;SDS011;38317;53.084;6.960;2023-07-31T12:07:47;0.65;;;0.15;;
52386;SDS011;38317;53.084;6.960;2023-07-31T12:16:00;0.25;;;0.10;;
52386;SDS011;38317;53.084;6.960;2023-07-31T12:18:19;0.10;;;0.00;;
52386;SDS011;38317;53.084;6.960;2023-07-31T12:20:47;0.40;;;0.00;;
52386;SDS011;38317;53.084;6.960;2023-07-31T12:23:28;0.10;;;0.00;;
52386;SDS011;38317;53.084;6.960;2023-07-31T12:26:09;0.30;;;0.00;;
52386;SDS011;38317;53.084;6.960;2023-07-31T12:31:10;0.63;;;0.10;;
52386;SDS011;38317;53.084;6.960;2023-07-31T12:33:46;0.00;;;0.00;;
52386;SDS011;38317;53.084;6.960;2023-07-31T12:36:16;0.73;;;0.10;;
52386;SDS011;38317;53.084;6.960;2023-07-31T12:38:43;0.10;;;0.03;;
52386;SDS011;38317;53.084;6.960;2023-07-31T12:41:10;0.10;;;0.10;;
52386;SDS011;38317;53.084;6.960;2023-07-31T12:43:39;0.22;;;0.10;;
52386;SDS011;38317;53.084;6.960;2023-07-31T12:46:07;0.60;;;0.10;;
52386;SDS011;38317;53.084;6.960;2023-07-31T12:48:34;0.55;;;0.20;;
52386;SDS011;38317;53.084;6.960;2023-07-31T12:51:00;0.55;;;0.30;;
52386;SDS011;38317;53.084;6.960;2023-07-31T12:53:26;0.95;;;0.30;;
52386;SDS011;38317;53.084;6.960;2023-07-31T12:55:52;0.77;;;0.20;;
52386;SDS011;38317;53.084;6.960;2023-07-31T12:58:18;0.55;;;0.30;;
52386;SDS011;38317;53.084;6.960;2023-07-31T13:00:44;0.50;;;0.20;;
52386;SDS011;38317;53.084;6.960;2023-07-31T13:03:09;0.70;;;0.30;;
52386;SDS011;38317;53.084;6.960;2023-07-31T13:05:35;0.20;;;0.20;;
52386;SDS011;38317;53.084;6.960;2023-07-31T13:08:01;0.47;;;0.20;;
52386;SDS011;38317;53.084;6.960;2023-07-31T13:10:27;1.58;;;0.40;;
52386;SDS011;38317;53.084;6.960;2023-07-31T13:12:54;1.23;;;0.22;;
52386;SDS011;38317;53.084;6.960;2023-07-31T13:15:20;1.95;;;0.38;;
52386;SDS011;38317;53.084;6.960;2023-07-31T13:17:46;0.68;;;0.30;;
52386;SDS011;38317;53.084;6.960;2023-07-31T13:20:11;0.57;;;0.30;;
52386;SDS011;38317;53.084;6.960;2023-07-31T13:22:37;0.75;;;0.30;;
52386;SDS011;38317;53.084;6.960;2023-07-31T13:25:03;1.00;;;0.20;;
52386;SDS011;38317;53.084;6.960;2023-07-31T13:27:30;1.58;;;0.30;;
52386;SDS011;38317;53.084;6.960;2023-07-31T13:29:56;1.38;;;0.47;;
52386;SDS011;38317;53.084;6.960;2023-07-31T13:32:21;1.75;;;0.60;;
52386;SDS011;38317;53.084;6.960;2023-07-31T13:34:47;0.90;;;0.50;;
52386;SDS011;38317;53.084;6.960;2023-07-31T13:37:14;1.10;;;0.45;;
52386;SDS011;38317;53.084;6.960;2023-07-31T13:39:40;1.52;;;0.50;;
52386;SDS011;38317;53.084;6.960;2023-07-31T13:42:07;2.03;;;1.05;;
52386;SDS011;38317;53.084;6.960;2023-07-31T13:44:37;2.38;;;0.60;;
52386;SDS011;38317;53.084;6.960;2023-07-31T13:47:06;3.45;;;1.00;;
52386;SDS011;38317;53.084;6.960;2023-07-31T13:49:33;2.40;;;0.77;;
52386;SDS011;38317;53.084;6.960;2023-07-31T13:52:01;2.47;;;0.85;;
52386;SDS011;38317;53.084;6.960;2023-07-31T13:54:27;4.22;;;1.05;;
52386;SDS011;38317;53.084;6.960;2023-07-31T13:56:52;4.13;;;1.20;;
52386;SDS011;38317;53.084;6.960;2023-07-31T13:59:18;3.25;;;0.93;;
52386;SDS011;38317;53.084;6.960;2023-07-31T14:01:45;2.92;;;1.10;;
52386;SDS011;38317;53.084;6.960;2023-07-31T14:04:11;4.78;;;1.20;;
52386;SDS011;38317;53.084;6.960;2023-07-31T14:06:37;2.78;;;0.95;;
52386;SDS011;38317;53.084;6.960;2023-07-31T14:09:03;3.92;;;1.58;;
52386;SDS011;38317;53.084;6.960;2023-07-31T14:11:30;4.05;;;1.20;;
52386;SDS011;38317;53.084;6.960;2023-07-31T14:13:56;3.78;;;0.93;;
52386;SDS011;38317;53.084;6.960;2023-07-31T14:16:22;2.40;;;0.93;;
52386;SDS011;38317;53.084;6.960;2023-07-31T14:18:48;3.03;;;1.00;;
52386;SDS011;38317;53.084;6.960;2023-07-31T14:21:14;2.60;;;0.90;;
52386;SDS011;38317;53.084;6.960;2023-07-31T14:23:40;3.65;;;1.27;;
52386;SDS011;38317;53.084;6.960;2023-07-31T14:26:06;6.07;;;1.45;;
52386;SDS011;38317;53.084;6.960;2023-07-31T14:28:32;3.58;;;1.17;;
52386;SDS011;38317;53.084;6.960;2023-07-31T14:30:58;6.40;;;1.70;;
52386;SDS011;38317;53.084;6.960;2023-07-31T14:33:24;5.72;;;1.40;;
52386;SDS011;38317;53.084;6.960;2023-07-31T14:35:50;4.97;;;1.40;;
52386;SDS011;38317;53.084;6.960;2023-07-31T14:38:16;5.55;;;1.50;;
52386;SDS011;38317;53.084;6.960;2023-07-31T14:40:42;5.63;;;1.45;;
52386;SDS011;38317;53.084;6.960;2023-07-31T14:43:08;3.78;;;1.30;;
52386;SDS011;38317;53.084;6.960;2023-07-31T14:45:34;5.55;;;1.65;;
52386;SDS011;38317;53.084;6.960;2023-07-31T14:48:00;5.28;;;1.80;;
52386;SDS011;38317;53.084;6.960;2023-07-31T14:50:25;7.28;;;1.60;;
52386;SDS011;38317;53.084;6.960;2023-07-31T14:52:51;7.90;;;1.88;;
52386;SDS011;38317;53.084;6.960;2023-07-31T14:55:18;5.90;;;1.70;;
52386;SDS011;38317;53.084;6.960;2023-07-31T14:57:44;5.88;;;2.03;;
52386;SDS011;38317;53.084;6.960;2023-07-31T15:00:10;4.72;;;1.70;;
52386;SDS011;38317;53.084;6.960;2023-07-31T15:02:36;9.27;;;2.03;;
52386;SDS011;38317;53.084;6.960;2023-07-31T15:05:02;5.65;;;1.88;;
52386;SDS011;38317;53.084;6.960;2023-07-31T15:07:29;6.25;;;1.63;;
52386;SDS011;38317;53.084;6.960;2023-07-31T15:09:54;4.38;;;1.80;;